sensor_id;sensor_type;location;lat;lon;timestamp;pressure;altitude;pressure_sealevel;temperature;humidity
60099;BME280;62818;49.394;8.686;2023-04-23T00:00:29;99738.69;;;13.25;100.00
60099;BME280;62818;49.394;8.686;2023-04-23T00:01:30;99739.88;;;13.35;100.00
60099;BME280;62818;49.394;8.686;2023-04-23T00:02:34;99740.50;;;13.24;100.00
60099;BME280;62818;49.394;8.686;2023-04-23T00:03:37;99744.25;;;13.10;100.00
60099;BME280;62818;49.394;8.686;2023-04-23T00:04:48;99736.88;;;13.12;100.00
60099;BME280;62818;49.394;8.686;2023-04-23T00:05:51;99745.00;;;13.44;100.00
60099;BME280;62818;49.394;8.686;2023-04-23T00:06:57;99746.28;;;13.15;100.00
60099;BME280;62818;49.394;8.686;2023-04-23T00:07:59;99739.91;;;12.96;100.00
60099;BME280;62818;49.394;8.686;2023-04-23T00:09:02;99740.34;;;13.13;100.00
60099;BME280;62818;49.394;8.686;2023-04-23T00:10:04;99737.88;;;13.11;100.00
60099;BME280;62818;49.394;8.686;2023-04-23T00:11:08;99742.78;;;13.01;100.00
60099;BME280;62818;49.394;8.686;2023-04-23T00:12:09;99743.19;;;13.11;100.00
60099;BME280;62818;49.394;8.686;2023-04-23T00:13:11;99733.38;;;13.18;100.00
60099;BME280;62818;49.394;8.686;2023-04-23T00:14:12;99743.53;;;13.48;100.00
60099;BME280;62818;49.394;8.686;2023-04-23T00:15:13;99734.50;;;13.49;100.00
60099;BME280;62818;49.394;8.686;2023-04-23T00:16:14;99734.97;;;13.39;100.00
60099;BME280;62818;49.394;8.686;2023-04-23T00:17:15;99744.78;;;13.45;100.00
60099;BME280;62818;49.394;8.686;2023-04-23T00:18:16;99743.59;;;13.21;100.00
60099;BME280;62818;49.394;8.686;2023-04-23T00:19:16;99739.53;;;13.12;100.00
60099;BME280;62818;49.394;8.686;2023-04-23T00:20:16;99741.31;;;13.38;100.00
60099;BME280;62818;49.394;8.686;2023-04-23T00:21:17;99738.22;;;13.41;100.00
60099;BME280;62818;49.394;8.686;2023-04-23T00:22:18;99746.25;;;13.34;100.00
60099;BME280;62818;49.394;8.686;2023-04-23T00:23:21;99737.03;;;13.37;100.00
60099;BME280;62818;49.394;8.686;2023-04-23T00:24:22;99742.78;;;13.21;100.00
60099;BME280;62818;49.394;8.686;2023-04-23T00:25:22;99745.69;;;13.06;100.00
60099;BME280;62818;49.394;8.686;2023-04-23T00:26:22;99740.94;;;13.21;100.00
60099;BME280;62818;49.394;8.686;2023-04-23T00:27:23;99746.47;;;13.13;100.00
60099;BME280;62818;49.394;8.686;2023-04-23T00:28:23;99741.97;;;13.07;100.00
60099;BME280;62818;49.394;8.686;2023-04-23T00:29:24;99738.91;;;13.10;100.00
60099;BME280;62818;49.394;8.686;2023-04-23T00:30:24;99741.34;;;12.92;100.00
60099;BME280;62818;49.394;8.686;2023-04-23T00:31:25;99741.13;;;13.13;100.00
60099;BME280;62818;49.394;8.686;2023-04-23T00:32:26;99746.66;;;12.99;100.00
60099;BME280;62818;49.394;8.686;2023-04-23T00:33:26;99740.13;;;13.01;100.00
60099;BME280;62818;49.394;8.686;2023-04-23T00:34:27;99747.50;;;12.99;100.00
60099;BME280;62818;49.394;8.686;2023-04-23T00:35:28;99747.28;;;12.94;100.00
60099;BME280;62818;49.394;8.686;2023-04-23T00:36:28;99740.97;;;13.08;100.00
60099;BME280;62818;49.394;8.686;2023-04-23T00:37:29;99736.81;;;13.32;100.00
60099;BME280;62818;49.394;8.686;2023-04-23T00:38:29;99742.38;;;13.30;100.00
60099;BME280;62818;49.394;8.686;2023-04-23T00:39:30;99748.47;;;13.37;100.00
60099;BME280;62818;49.394;8.686;2023-04-23T00:40:30;99746.44;;;13.26;100.00
60099;BME280;62818;49.394;8.686;2023-04-23T00:41:31;99742.34;;;13.37;100.00
60099;BME280;62818;49.394;8.686;2023-04-23T00:42:31;99748.50;;;13.24;100.00
60099;BME280;62818;49.394;8.686;2023-04-23T00:43:32;99740.13;;;13.21;100.00
60099;BME280;62818;49.394;8.686;2023-04-23T00:44:33;99739.06;;;13.22;100.00
60099;BME280;62818;49.394;8.686;2023-04-23T00:45:33;99740.34;;;13.19;100.00
60099;BME280;62818;49.394;8.686;2023-04-23T00:46:34;99741.34;;;13.25;100.00
60099;BME280;62818;49.394;8.686;2023-04-23T00:47:35;99742.72;;;13.41;100.00
60099;BME280;62818;49.394;8.686;2023-04-23T00:48:36;99742.31;;;13.44;100.00
60099;BME280;62818;49.394;8.686;2023-04-23T00:49:37;99745.97;;;13.49;100.00
60099;BME280;62818;49.394;8.686;2023-04-23T00:50:38;99747.25;;;13.33;100.00
60099;BME280;62818;49.394;8.686;2023-04-23T00:51:39;99743.97;;;13.31;100.00
60099;BME280;62818;49.394;8.686;2023-04-23T00:52:39;99746.44;;;13.26;100.00
60099;BME280;62818;49.394;8.686;2023-04-23T00:53:40;99741.97;;;13.20;100.00
60099;BME280;62818;49.394;8.686;2023-04-23T00:54:40;99747.69;;;13.24;100.00
60099;BME280;62818;49.394;8.686;2023-04-23T00:55:41;99743.59;;;13.02;100.00
60099;BME280;62818;49.394;8.686;2023-04-23T00:56:42;99742.38;;;13.11;100.00
60099;BME280;62818;49.394;8.686;2023-04-23T00:57:43;99741.34;;;12.92;100.00
60099;BME280;62818;49.394;8.686;2023-04-23T00:58:43;99737.03;;;13.04;100.00
60099;BME280;62818;49.394;8.686;2023-04-23T00:59:45;99736.88;;;13.12;100.00
60099;BME280;62818;49.394;8.686;2023-04-23T01:00:46;99740.53;;;13.05;100.00
60099;BME280;62818;49.394;8.686;2023-04-23T01:01:48;99739.31;;;12.94;100.00
60099;BME280;62818;49.394;8.686;2023-04-23T01:02:49;99746.06;;;13.10;100.00
60099;BME280;62818;49.394;8.686;2023-04-23T01:03:52;99740.13;;;12.88;100.00
60099;BME280;62818;49.394;8.686;2023-04-23T01:04:53;99739.09;;;12.96;100.00
60099;BME280;62818;49.394;8.686;2023-04-23T01:05:55;99740.75;;;12.90;100.00
60099;BME280;62818;49.394;8.686;2023-04-23T01:06:56;99742.34;;;13.04;100.00
60099;BME280;62818;49.394;8.686;2023-04-23T01:07:58;99738.69;;;12.79;100.00
60099;BME280;62818;49.394;8.686;2023-04-23T01:08:58;99731.34;;;12.81;100.00
60099;BME280;62818;49.394;8.686;2023-04-23T01:09:59;99738.06;;;13.16;100.00
60099;BME280;62818;49.394;8.686;2023-04-23T01:11:01;99733.72;;;13.42;100.00
60099;BME280;62818;49.394;8.686;2023-04-23T01:12:04;99736.25;;;13.10;100.00
60099;BME280;62818;49.394;8.686;2023-04-23T01:13:05;99738.69;;;12.86;100.00
60099;BME280;62818;49.394;8.686;2023-04-23T01:14:07;99736.25;;;12.84;100.00
60099;BME280;62818;49.394;8.686;2023-04-23T01:15:09;99738.31;;;13.08;100.00
60099;BME280;62818;49.394;8.686;2023-04-23T01:16:10;99742.78;;;13.01;100.00
60099;BME280;62818;49.394;8.686;2023-04-23T01:17:11;99734.59;;;12.70;100.00
60099;BME280;62818;49.394;8.686;2023-04-23T01:18:11;99733.16;;;12.74;100.00
60099;BME280;62818;49.394;8.686;2023-04-23T01:19:12;99743.63;;;12.89;100.00
60099;BME280;62818;49.394;8.686;2023-04-23T01:20:15;99744.63;;;12.68;100.00
60099;BME280;62818;49.394;8.686;2023-04-23T01:21:17;99744.41;;;12.56;100.00
60099;BME280;62818;49.394;8.686;2023-04-23T01:22:19;99747.69;;;12.65;100.00
60099;BME280;62818;49.394;8.686;2023-04-23T01:23:20;99745.25;;;12.57;100.00
60099;BME280;62818;49.394;8.686;2023-04-23T01:24:21;99742.78;;;12.62;100.00
60099;BME280;62818;49.394;8.686;2023-04-23T01:25:21;99743.19;;;12.65;100.00
60099;BME280;62818;49.394;8.686;2023-04-23T01:26:22;99751.19;;;12.79;100.00
60099;BME280;62818;49.394;8.686;2023-04-23T01:27:23;99759.56;;;12.95;100.00
60099;BME280;62818;49.394;8.686;2023-04-23T01:28:24;99745.84;;;12.92;100.00
60099;BME280;62818;49.394;8.686;2023-04-23T01:29:25;99754.66;;;12.99;100.00
60099;BME280;62818;49.394;8.686;2023-04-23T01:30:26;99745.25;;;12.63;100.00
60099;BME280;62818;49.394;8.686;2023-04-23T01:31:29;99749.94;;;12.88;100.00
60099;BME280;62818;49.394;8.686;2023-04-23T01:32:31;99743.41;;;12.77;100.00
60099;BME280;62818;49.394;8.686;2023-04-23T01:33:32;99744.41;;;12.89;100.00
60099;BME280;62818;49.394;8.686;2023-04-23T01:34:34;99752.19;;;12.97;100.00
60099;BME280;62818;49.394;8.686;2023-04-23T01:35:35;99743.59;;;12.69;100.00
60099;BME280;62818;49.394;8.686;2023-04-23T01:36:36;99744.41;;;12.83;100.00
60099;BME280;62818;49.394;8.686;2023-04-23T01:37:37;99750.56;;;12.77;100.00
60099;BME280;62818;49.394;8.686;2023-04-23T01:38:38;99744.84;;;12.60;100.00
60099;BME280;62818;49.394;8.686;2023-04-23T01:39:39;99747.28;;;12.68;100.00
60099;BME280;62818;49.394;8.686;2023-04-23T01:40:41;99750.97;;;12.67;100.00
60099;BME280;62818;49.394;8.686;2023-04-23T01:41:42;99746.69;;;12.66;100.00
60099;BME280;62818;49.394;8.686;2023-04-23T01:42:43;99741.38;;;12.66;100.00
60099;BME280;62818;49.394;8.686;2023-04-23T01:43:44;99760.81;;;12.60;100.00
60099;BME280;62818;49.394;8.686;2023-04-23T01:44:45;99750.56;;;12.63;100.00
60099;BME280;62818;49.394;8.686;2023-04-23T01:45:45;99754.66;;;12.59;100.00
60099;BME280;62818;49.394;8.686;2023-04-23T01:46:46;99750.94;;;12.54;100.00
60099;BME280;62818;49.394;8.686;2023-04-23T01:47:46;99752.59;;;12.55;100.00
60099;BME280;62818;49.394;8.686;2023-04-23T01:48:47;99746.06;;;12.64;100.00
60099;BME280;62818;49.394;8.686;2023-04-23T01:49:48;99746.25;;;12.69;100.00
60099;BME280;62818;49.394;8.686;2023-04-23T01:50:50;99741.16;;;12.74;100.00
60099;BME280;62818;49.394;8.686;2023-04-23T01:51:51;99755.47;;;12.86;100.00
60099;BME280;62818;49.394;8.686;2023-04-23T01:52:52;99754.66;;;12.79;100.00
60099;BME280;62818;49.394;8.686;2023-04-23T01:53:52;99757.94;;;12.68;100.00
60099;BME280;62818;49.394;8.686;2023-04-23T01:54:53;99767.31;;;12.44;100.00
60099;BME280;62818;49.394;8.686;2023-04-23T01:55:54;99762.78;;;12.45;100.00
60099;BME280;62818;49.394;8.686;2023-04-23T01:56:55;99768.09;;;12.38;100.00
60099;BME280;62818;49.394;8.686;2023-04-23T01:57:58;99765.25;;;12.40;100.00
60099;BME280;62818;49.394;8.686;2023-04-23T01:58:58;99767.13;;;12.59;100.00
60099;BME280;62818;49.394;8.686;2023-04-23T02:00:07;99766.50;;;12.63;100.00
60099;BME280;62818;49.394;8.686;2023-04-23T02:01:13;99768.34;;;12.50;100.00
60099;BME280;62818;49.394;8.686;2023-04-23T02:02:14;99767.31;;;12.51;100.00
60099;BME280;62818;49.394;8.686;2023-04-23T02:03:15;99769.38;;;12.42;100.00
60099;BME280;62818;49.394;8.686;2023-04-23T02:04:16;99768.53;;;12.48;100.00
60099;BME280;62818;49.394;8.686;2023-04-23T02:05:18;99770.19;;;12.56;100.00
60099;BME280;62818;49.394;8.686;2023-04-23T02:06:19;99772.81;;;12.49;100.00
60099;BME280;62818;49.394;8.686;2023-04-23T02:07:20;99771.00;;;12.50;100.00
60099;BME280;62818;49.394;8.686;2023-04-23T02:08:21;99766.06;;;12.47;100.00
60099;BME280;62818;49.394;8.686;2023-04-23T02:09:22;99768.94;;;12.58;100.00
60099;BME280;62818;49.394;8.686;2023-04-23T02:10:22;99767.50;;;12.56;100.00
60099;BME280;62818;49.394;8.686;2023-04-23T02:11:23;99769.38;;;12.49;100.00
60099;BME280;62818;49.394;8.686;2023-04-23T02:12:24;99770.63;;;12.66;100.00
60099;BME280;62818;49.394;8.686;2023-04-23T02:13:25;99776.72;;;12.53;100.00
60099;BME280;62818;49.394;8.686;2023-04-23T02:14:26;99778.38;;;12.74;100.00
60099;BME280;62818;49.394;8.686;2023-04-23T02:15:26;99777.16;;;12.63;100.00
60099;BME280;62818;49.394;8.686;2023-04-23T02:16:27;99780.44;;;12.72;100.00
60099;BME280;62818;49.394;8.686;2023-04-23T02:17:28;99786.97;;;12.63;100.00
60099;BME280;62818;49.394;8.686;2023-04-23T02:18:28;99779.59;;;12.78;100.00
60099;BME280;62818;49.394;8.686;2023-04-23T02:19:28;99790.22;;;12.65;100.00
60099;BME280;62818;49.394;8.686;2023-04-23T02:20:33;99781.63;;;12.43;100.00
60099;BME280;62818;49.394;8.686;2023-04-23T02:21:37;99795.56;;;12.65;100.00
60099;BME280;62818;49.394;8.686;2023-04-23T02:22:39;99787.38;;;12.67;100.00
60099;BME280;62818;49.394;8.686;2023-04-23T02:23:41;99784.53;;;12.88;100.00
60099;BME280;62818;49.394;8.686;2023-04-23T02:24:41;99774.91;;;12.93;100.00
60099;BME280;62818;49.394;8.686;2023-04-23T02:25:43;99778.38;;;12.68;100.00
60099;BME280;62818;49.394;8.686;2023-04-23T02:26:43;99782.47;;;12.57;100.00
60099;BME280;62818;49.394;8.686;2023-04-23T02:27:44;99785.34;;;12.62;100.00
60099;BME280;62818;49.394;8.686;2023-04-23T02:28:45;99769.38;;;12.55;100.00
60099;BME280;62818;49.394;8.686;2023-04-23T02:29:48;99775.31;;;12.64;100.00
60099;BME280;62818;49.394;8.686;2023-04-23T02:30:48;99771.22;;;12.81;100.00
60099;BME280;62818;49.394;8.686;2023-04-23T02:31:49;99767.34;;;12.90;100.00
60099;BME280;62818;49.394;8.686;2023-04-23T02:32:49;99777.97;;;12.77;100.00
60099;BME280;62818;49.394;8.686;2023-04-23T02:33:50;99773.06;;;12.61;100.00
60099;BME280;62818;49.394;8.686;2023-04-23T02:34:51;99780.78;;;12.43;100.00
60099;BME280;62818;49.394;8.686;2023-04-23T02:35:51;99782.84;;;12.60;100.00
60099;BME280;62818;49.394;8.686;2023-04-23T02:36:52;99779.59;;;12.52;100.00
60099;BME280;62818;49.394;8.686;2023-04-23T02:37:55;99780.22;;;12.67;100.00
60099;BME280;62818;49.394;8.686;2023-04-23T02:38:55;99785.34;;;12.62;100.00
60099;BME280;62818;49.394;8.686;2023-04-23T02:39:56;99778.75;;;12.51;100.00
60099;BME280;62818;49.394;8.686;2023-04-23T02:40:56;99784.31;;;12.63;100.00
60099;BME280;62818;49.394;8.686;2023-04-23T02:41:57;99784.09;;;12.71;100.00
60099;BME280;62818;49.394;8.686;2023-04-23T02:42:57;99788.16;;;12.54;100.00
60099;BME280;62818;49.394;8.686;2023-04-23T02:43:58;99785.50;;;12.54;100.00
60099;BME280;62818;49.394;8.686;2023-04-23T02:44:58;99780.03;;;12.62;100.00
60099;BME280;62818;49.394;8.686;2023-04-23T02:45:59;99789.81;;;12.55;100.00
60099;BME280;62818;49.394;8.686;2023-04-23T02:47:00;99785.72;;;12.59;100.00
60099;BME280;62818;49.394;8.686;2023-04-23T02:48:00;99782.25;;;12.65;100.00
60099;BME280;62818;49.394;8.686;2023-04-23T02:49:01;99778.72;;;12.38;100.00
60099;BME280;62818;49.394;8.686;2023-04-23T02:50:01;99788.16;;;12.47;100.00
60099;BME280;62818;49.394;8.686;2023-04-23T02:51:06;99780.78;;;12.43;100.00
60099;BME280;62818;49.394;8.686;2023-04-23T02:52:08;99784.91;;;12.52;100.00
60099;BME280;62818;49.394;8.686;2023-04-23T02:53:09;99779.19;;;12.55;100.00
60099;BME280;62818;49.394;8.686;2023-04-23T02:54:10;99785.34;;;12.62;100.00
60099;BME280;62818;49.394;8.686;2023-04-23T02:55:11;99780.81;;;12.69;100.00
60099;BME280;62818;49.394;8.686;2023-04-23T02:56:11;99771.63;;;12.85;100.00
60099;BME280;62818;49.394;8.686;2023-04-23T02:57:12;99781.47;;;12.91;100.00
60099;BME280;62818;49.394;8.686;2023-04-23T02:58:14;99782.88;;;12.80;100.00
60099;BME280;62818;49.394;8.686;2023-04-23T02:59:15;99782.88;;;12.87;100.00
60099;BME280;62818;49.394;8.686;2023-04-23T03:00:15;99787.78;;;12.83;100.00
60099;BME280;62818;49.394;8.686;2023-04-23T03:01:17;99780.63;;;12.84;100.00
60099;BME280;62818;49.394;8.686;2023-04-23T03:02:18;99785.34;;;12.88;100.00
60099;BME280;62818;49.394;8.686;2023-04-23T03:03:18;99786.56;;;12.79;100.00
60099;BME280;62818;49.394;8.686;2023-04-23T03:04:19;99776.75;;;12.73;100.00
60099;BME280;62818;49.394;8.686;2023-04-23T03:05:20;99775.72;;;12.74;100.00
60099;BME280;62818;49.394;8.686;2023-04-23T03:06:20;99767.31;;;12.51;100.00
60099;BME280;62818;49.394;8.686;2023-04-23T03:07:21;99774.69;;;12.49;100.00
60099;BME280;62818;49.394;8.686;2023-04-23T03:08:21;99767.31;;;12.51;100.00
60099;BME280;62818;49.394;8.686;2023-04-23T03:09:22;99762.84;;;12.78;100.00
60099;BME280;62818;49.394;8.686;2023-04-23T03:10:22;99771.22;;;12.68;100.00
60099;BME280;62818;49.394;8.686;2023-04-23T03:11:23;99764.88;;;12.62;100.00
60099;BME280;62818;49.394;8.686;2023-04-23T03:12:23;99763.66;;;12.78;100.00
60099;BME280;62818;49.394;8.686;2023-04-23T03:13:25;99764.88;;;12.62;100.00
60099;BME280;62818;49.394;8.686;2023-04-23T03:14:25;99764.06;;;12.95;100.00
60099;BME280;62818;49.394;8.686;2023-04-23T03:15:26;99756.28;;;12.80;100.00
60099;BME280;62818;49.394;8.686;2023-04-23T03:16:28;99766.13;;;12.80;100.00
60099;BME280;62818;49.394;8.686;2023-04-23T03:17:30;99769.56;;;12.80;100.00
60099;BME280;62818;49.394;8.686;2023-04-23T03:18:30;99766.13;;;12.93;100.00
60099;BME280;62818;49.394;8.686;2023-04-23T03:19:31;99765.50;;;12.78;100.00
60099;BME280;62818;49.394;8.686;2023-04-23T03:20:35;99765.28;;;12.79;100.00
60099;BME280;62818;49.394;8.686;2023-04-23T03:21:36;99766.72;;;12.69;100.00
60099;BME280;62818;49.394;8.686;2023-04-23T03:22:36;99767.34;;;12.77;100.00
60099;BME280;62818;49.394;8.686;2023-04-23T03:23:37;99766.13;;;12.86;100.00
60099;BME280;62818;49.394;8.686;2023-04-23T03:24:37;99770.19;;;12.62;100.00
60099;BME280;62818;49.394;8.686;2023-04-23T03:25:38;99765.28;;;12.66;100.00
60099;BME280;62818;49.394;8.686;2023-04-23T03:26:38;99770.63;;;12.66;100.00
60099;BME280;62818;49.394;8.686;2023-04-23T03:27:39;99764.06;;;12.62;100.00
60099;BME280;62818;49.394;8.686;2023-04-23T03:28:39;99766.50;;;12.63;100.00
60099;BME280;62818;49.394;8.686;2023-04-23T03:29:41;99772.22;;;12.54;100.00
60099;BME280;62818;49.394;8.686;2023-04-23T03:30:41;99776.75;;;12.67;100.00
60099;BME280;62818;49.394;8.686;2023-04-23T03:31:42;99768.56;;;12.55;100.00
60099;BME280;62818;49.394;8.686;2023-04-23T03:32:42;99780.19;;;12.54;100.00
60099;BME280;62818;49.394;8.686;2023-04-23T03:33:43;99773.06;;;12.74;100.00
60099;BME280;62818;49.394;8.686;2023-04-23T03:34:43;99779.41;;;12.60;100.00
60099;BME280;62818;49.394;8.686;2023-04-23T03:35:44;99772.66;;;12.51;100.00
60099;BME280;62818;49.394;8.686;2023-04-23T03:36:44;99765.25;;;12.40;100.00
60099;BME280;62818;49.394;8.686;2023-04-23T03:37:47;99761.59;;;12.60;100.00
60099;BME280;62818;49.394;8.686;2023-04-23T03:38:48;99759.97;;;12.66;100.00
60099;BME280;62818;49.394;8.686;2023-04-23T03:39:48;99760.38;;;12.63;100.00
60099;BME280;62818;49.394;8.686;2023-04-23T03:40:50;99762.03;;;12.64;100.00
60099;BME280;62818;49.394;8.686;2023-04-23T03:41:50;99759.34;;;12.38;100.00
60099;BME280;62818;49.394;8.686;2023-04-23T03:42:51;99759.53;;;12.49;100.00
60099;BME280;62818;49.394;8.686;2023-04-23T03:43:51;99762.81;;;12.51;100.00
60099;BME280;62818;49.394;8.686;2023-04-23T03:44:52;99770.41;;;12.68;100.00
60099;BME280;62818;49.394;8.686;2023-04-23T03:45:52;99777.56;;;12.67;100.00
60099;BME280;62818;49.394;8.686;2023-04-23T03:46:53;99768.13;;;12.45;100.00
60099;BME280;62818;49.394;8.686;2023-04-23T03:47:53;99776.88;;;12.26;100.00
60099;BME280;62818;49.394;8.686;2023-04-23T03:48:54;99775.69;;;12.54;100.00
60099;BME280;62818;49.394;8.686;2023-04-23T03:49:55;99780.81;;;12.62;100.00
60099;BME280;62818;49.394;8.686;2023-04-23T03:50:56;99764.25;;;12.80;100.00
60099;BME280;62818;49.394;8.686;2023-04-23T03:51:57;99782.88;;;12.74;100.00
60099;BME280;62818;49.394;8.686;2023-04-23T03:52:57;99773.88;;;12.81;100.00
60099;BME280;62818;49.394;8.686;2023-04-23T03:53:58;99786.31;;;12.48;100.00
60099;BME280;62818;49.394;8.686;2023-04-23T03:54:58;99783.47;;;12.56;100.00
60099;BME280;62818;49.394;8.686;2023-04-23T03:55:59;99783.88;;;12.40;100.00
60099;BME280;62818;49.394;8.686;2023-04-23T03:56:59;99786.06;;;12.30;100.00
60099;BME280;62818;49.394;8.686;2023-04-23T03:58:01;99789.34;;;12.32;100.00
60099;BME280;62818;49.394;8.686;2023-04-23T03:59:02;99785.25;;;12.36;100.00
60099;BME280;62818;49.394;8.686;2023-04-23T04:00:03;99787.75;;;12.44;100.00
60099;BME280;62818;49.394;8.686;2023-04-23T04:01:07;99784.03;;;12.32;100.00
60099;BME280;62818;49.394;8.686;2023-04-23T04:02:07;99792.03;;;12.45;100.00
60099;BME280;62818;49.394;8.686;2023-04-23T04:03:08;99786.94;;;12.50;100.00
60099;BME280;62818;49.394;8.686;2023-04-23T04:04:08;99777.16;;;12.57;100.00
60099;BME280;62818;49.394;8.686;2023-04-23T04:05:09;99789.41;;;12.58;100.00
60099;BME280;62818;49.394;8.686;2023-04-23T04:06:10;99788.56;;;12.38;100.00
60099;BME280;62818;49.394;8.686;2023-04-23T04:07:11;99786.06;;;12.30;100.00
60099;BME280;62818;49.394;8.686;2023-04-23T04:08:11;99778.72;;;12.25;100.00
60099;BME280;62818;49.394;8.686;2023-04-23T04:09:12;99786.09;;;12.43;100.00
60099;BME280;62818;49.394;8.686;2023-04-23T04:10:12;99773.88;;;12.55;100.00
60099;BME280;62818;49.394;8.686;2023-04-23T04:11:14;99781.63;;;12.56;100.00
60099;BME280;62818;49.394;8.686;2023-04-23T04:12:15;99788.34;;;12.33;100.00
60099;BME280;62818;49.394;8.686;2023-04-23T04:13:15;99780.16;;;12.34;100.00
60099;BME280;62818;49.394;8.686;2023-04-23T04:14:16;99790.97;;;12.20;100.00
60099;BME280;62818;49.394;8.686;2023-04-23T04:15:16;99775.44;;;12.30;100.00
60099;BME280;62818;49.394;8.686;2023-04-23T04:16:19;99783.03;;;12.33;100.00
60099;BME280;62818;49.394;8.686;2023-04-23T04:17:19;99784.66;;;12.34;100.00
60099;BME280;62818;49.394;8.686;2023-04-23T04:18:20;99783.28;;;12.64;100.00
60099;BME280;62818;49.394;8.686;2023-04-23T04:19:20;99783.69;;;12.68;100.00
60099;BME280;62818;49.394;8.686;2023-04-23T04:20:21;99780.41;;;12.59;100.00
60099;BME280;62818;49.394;8.686;2023-04-23T04:21:21;99786.94;;;12.43;100.00
60099;BME280;62818;49.394;8.686;2023-04-23T04:22:22;99782.06;;;12.60;100.00
60099;BME280;62818;49.394;8.686;2023-04-23T04:23:23;99789.00;;;12.74;100.00
60099;BME280;62818;49.394;8.686;2023-04-23T04:24:23;99791.25;;;12.51;100.00
60099;BME280;62818;49.394;8.686;2023-04-23T04:25:24;99793.09;;;12.57;100.00
60099;BME280;62818;49.394;8.686;2023-04-23T04:26:28;99793.47;;;12.47;100.00
60099;BME280;62818;49.394;8.686;2023-04-23T04:27:31;99791.66;;;12.48;100.00
60099;BME280;62818;49.394;8.686;2023-04-23T04:28:34;99795.88;;;12.29;100.00
60099;BME280;62818;49.394;8.686;2023-04-23T04:29:36;99795.31;;;12.47;100.00
60099;BME280;62818;49.394;8.686;2023-04-23T04:30:40;99790.00;;;12.47;100.00
60099;BME280;62818;49.394;8.686;2023-04-23T04:31:41;99791.84;;;12.46;100.00
60099;BME280;62818;49.394;8.686;2023-04-23T04:32:42;99796.34;;;12.46;100.00
60099;BME280;62818;49.394;8.686;2023-04-23T04:33:44;99797.94;;;12.34;100.00
60099;BME280;62818;49.394;8.686;2023-04-23T04:34:45;99797.16;;;12.40;100.00
60099;BME280;62818;49.394;8.686;2023-04-23T04:35:46;99802.50;;;12.53;100.00
60099;BME280;62818;49.394;8.686;2023-04-23T04:36:48;99799.63;;;12.61;100.00
60099;BME280;62818;49.394;8.686;2023-04-23T04:37:52;99800.81;;;12.32;100.00
60099;BME280;62818;49.394;8.686;2023-04-23T04:38:53;99799.59;;;12.41;100.00
60099;BME280;62818;49.394;8.686;2023-04-23T04:40:00;99800.59;;;12.34;100.00
60099;BME280;62818;49.394;8.686;2023-04-23T04:41:01;99804.31;;;12.39;100.00
60099;BME280;62818;49.394;8.686;2023-04-23T04:42:03;99798.72;;;12.15;100.00
60099;BME280;62818;49.394;8.686;2023-04-23T04:43:05;99797.50;;;12.17;100.00
60099;BME280;62818;49.394;8.686;2023-04-23T04:44:06;99792.84;;;12.32;100.00
60099;BME280;62818;49.394;8.686;2023-04-23T04:45:10;99796.09;;;12.34;100.00
60099;BME280;62818;49.394;8.686;2023-04-23T04:46:11;99788.16;;;12.41;100.00
60099;BME280;62818;49.394;8.686;2023-04-23T04:47:11;99787.75;;;12.37;100.00
60099;BME280;62818;49.394;8.686;2023-04-23T04:48:12;99786.91;;;12.37;100.00
60099;BME280;62818;49.394;8.686;2023-04-23T04:49:13;99784.06;;;12.45;100.00
60099;BME280;62818;49.394;8.686;2023-04-23T04:50:20;99784.88;;;12.39;100.00
60099;BME280;62818;49.394;8.686;2023-04-23T04:51:20;99786.69;;;12.32;100.00
60099;BME280;62818;49.394;8.686;2023-04-23T04:52:21;99785.69;;;12.33;100.00
60099;BME280;62818;49.394;8.686;2023-04-23T04:53:21;99789.81;;;12.55;100.00
60099;BME280;62818;49.394;8.686;2023-04-23T04:54:22;99788.16;;;12.54;100.00
60099;BME280;62818;49.394;8.686;2023-04-23T04:55:23;99791.88;;;12.66;100.00
60099;BME280;62818;49.394;8.686;2023-04-23T04:56:23;99790.41;;;12.44;100.00
60099;BME280;62818;49.394;8.686;2023-04-23T04:57:25;99783.22;;;12.25;100.00
60099;BME280;62818;49.394;8.686;2023-04-23T04:58:25;99783.66;;;12.35;100.00
60099;BME280;62818;49.394;8.686;2023-04-23T04:59:26;99789.34;;;12.32;100.00
60099;BME280;62818;49.394;8.686;2023-04-23T05:00:27;99788.59;;;12.44;100.00
60099;BME280;62818;49.394;8.686;2023-04-23T05:01:29;99791.66;;;12.48;100.00
60099;BME280;62818;49.394;8.686;2023-04-23T05:02:30;99792.66;;;12.47;100.00
60099;BME280;62818;49.394;8.686;2023-04-23T05:03:30;99799.59;;;12.35;100.00
60099;BME280;62818;49.394;8.686;2023-04-23T05:04:31;99797.56;;;12.43;100.00
60099;BME280;62818;49.394;8.686;2023-04-23T05:05:32;99797.75;;;12.29;100.00
60099;BME280;62818;49.394;8.686;2023-04-23T05:06:32;99798.16;;;12.39;100.00
60099;BME280;62818;49.394;8.686;2023-04-23T05:07:33;99797.56;;;12.50;100.00
60099;BME280;62818;49.394;8.686;2023-04-23T05:08:33;99798.03;;;12.60;100.00
60099;BME280;62818;49.394;8.686;2023-04-23T05:09:34;99804.34;;;12.65;100.00
60099;BME280;62818;49.394;8.686;2023-04-23T05:10:34;99812.66;;;12.30;100.00
60099;BME280;62818;49.394;8.686;2023-04-23T05:11:35;99793.91;;;12.44;100.00
60099;BME280;62818;49.394;8.686;2023-04-23T05:12:36;99816.31;;;12.22;100.00
60099;BME280;62818;49.394;8.686;2023-04-23T05:13:40;99801.84;;;12.38;100.00
60099;BME280;62818;49.394;8.686;2023-04-23T05:14:41;99811.44;;;12.32;100.00
60099;BME280;62818;49.394;8.686;2023-04-23T05:15:41;99807.53;;;12.22;100.00
60099;BME280;62818;49.394;8.686;2023-04-23T05:16:42;99808.75;;;12.26;100.00
60099;BME280;62818;49.394;8.686;2023-04-23T05:17:43;99807.41;;;12.56;100.00
60099;BME280;62818;49.394;8.686;2023-04-23T05:18:44;99814.38;;;12.57;100.00
60099;BME280;62818;49.394;8.686;2023-04-23T05:19:44;99808.22;;;12.56;100.00